createdAt,value
2018-08-30T11:20:34.219Z,19.10
2018-08-30T11:21:12.406Z,17.50
2018-08-30T11:21:51.076Z,18.10
2018-08-30T11:22:28.936Z,17.33
2018-08-30T11:23:06.933Z,18.37
2018-08-30T11:23:44.977Z,18.60
2018-08-30T11:24:23.077Z,17.33
2018-08-30T11:25:01.086Z,19.03
2018-08-30T11:25:39.131Z,17.57
2018-08-30T11:26:17.015Z,17.90
2018-08-30T11:26:54.982Z,18.30
2018-08-30T11:27:33.186Z,17.97
2018-08-30T11:28:11.316Z,17.83
2018-08-30T11:28:50.460Z,17.90
2018-08-30T11:29:29.194Z,17.10
2018-08-30T11:30:07.189Z,17.50
2018-08-30T11:30:45.203Z,16.43
2018-08-30T11:31:23.389Z,18.40
2018-08-30T11:32:01.465Z,17.70
2018-08-30T11:32:39.415Z,18.20
2018-08-30T11:33:17.383Z,17.60
2018-08-30T11:33:55.463Z,18.73
2018-08-30T11:34:33.478Z,20.07
2018-08-30T11:35:12.481Z,19.67
2018-08-30T11:35:50.497Z,18.73
2018-08-30T11:36:28.446Z,19.00
2018-08-30T11:37:06.352Z,18.60
2018-08-30T11:37:44.445Z,18.97
2018-08-30T11:38:22.660Z,19.00
2018-08-30T11:39:00.630Z,17.47
2018-08-30T11:39:38.649Z,19.63
2018-08-30T11:40:16.777Z,18.30
2018-08-30T11:40:54.792Z,17.77
2018-08-30T11:41:32.800Z,19.57
2018-08-30T11:42:10.921Z,17.90
2018-08-30T11:42:49.001Z,18.97
2018-08-30T11:43:27.113Z,19.20
2018-08-30T11:44:05.132Z,19.60
2018-08-30T11:44:43.260Z,18.77
2018-08-30T11:45:22.196Z,19.37
2018-08-30T11:46:00.259Z,20.20
2018-08-30T11:46:39.327Z,18.70
2018-08-30T11:47:17.263Z,18.90
2018-08-30T11:47:55.286Z,19.73
2018-08-30T11:48:33.288Z,19.13
2018-08-30T11:49:11.336Z,17.20
2018-08-30T11:49:49.393Z,17.63
2018-08-30T11:50:27.456Z,19.10
2018-08-30T11:51:05.470Z,16.87
2018-08-30T11:51:43.436Z,18.50
2018-08-30T11:53:25.027Z,19.40
2018-08-30T11:54:03.220Z,18.53
2018-08-30T11:54:41.240Z,18.70
2018-08-30T11:55:19.283Z,19.80
2018-08-30T11:55:57.299Z,20.00
2018-08-30T11:56:35.374Z,19.47
2018-08-30T11:57:13.318Z,18.50
2018-08-30T11:57:52.469Z,19.60
2018-08-30T11:58:30.541Z,18.73
2018-08-30T11:59:08.618Z,18.40
2018-08-30T11:59:46.641Z,19.80
2018-08-30T12:00:24.675Z,20.00
2018-08-30T12:01:02.662Z,19.20
2018-08-30T12:01:41.131Z,18.97
2018-08-30T12:02:19.192Z,19.20
2018-08-30T12:02:57.216Z,19.77
2018-08-30T12:03:35.463Z,20.27
2018-08-30T12:04:14.458Z,19.83
2018-08-30T12:04:54.484Z,20.43
2018-08-30T12:05:32.591Z,19.67
2018-08-30T12:06:10.780Z,19.47
2018-08-30T12:06:48.818Z,19.70
2018-08-30T12:07:26.829Z,18.53
2018-08-30T12:08:04.878Z,17.17
2018-08-30T12:08:43.223Z,17.73
2018-08-30T12:09:21.269Z,19.47
2018-08-30T12:09:59.439Z,18.27
2018-08-30T12:10:39.359Z,18.90
2018-08-30T12:11:17.805Z,18.97
2018-08-30T12:11:56.331Z,20.90
2018-08-30T12:12:34.254Z,20.27
2018-08-30T12:13:12.369Z,22.13
2018-08-30T12:13:50.425Z,19.93
2018-08-30T12:14:28.485Z,19.30
2018-08-30T12:15:06.461Z,19.77
2018-08-30T12:15:44.317Z,19.97
2018-08-30T12:16:22.250Z,20.43
2018-08-30T12:17:00.244Z,20.27
2018-08-30T12:17:38.117Z,20.20
2018-08-30T12:18:16.688Z,21.05
2018-08-30T12:18:54.675Z,21.50
2018-08-30T12:19:32.832Z,21.30
2018-08-30T12:20:10.841Z,21.03
2018-08-30T12:20:48.831Z,20.10
2018-08-30T12:21:26.997Z,19.77
2018-08-30T12:22:06.085Z,22.23
2018-08-30T12:22:44.332Z,21.80
2018-08-30T12:23:22.421Z,20.10
2018-08-30T12:24:00.412Z,20.30
2018-08-30T12:24:38.303Z,20.20
2018-08-30T12:25:16.181Z,21.20
2018-08-30T12:25:54.791Z,21.43
2018-08-30T12:26:32.812Z,22.50
2018-08-30T12:27:10.976Z,20.97
2018-08-30T12:27:48.980Z,21.30
2018-08-30T12:28:27.068Z,22.43
2018-08-30T12:29:05.342Z,22.10
2018-08-30T12:29:43.373Z,21.80
2018-08-30T12:30:21.401Z,21.40
2018-08-30T12:30:59.893Z,21.30
2018-08-30T12:31:38.013Z,22.07
2018-08-30T12:32:17.095Z,22.22
2018-08-30T12:32:55.141Z,21.67
2018-08-30T12:33:33.185Z,22.83
2018-08-30T12:34:11.354Z,21.70
2018-08-30T12:34:49.262Z,22.77
2018-08-30T12:35:27.588Z,20.97
2018-08-30T12:36:05.615Z,22.30
2018-08-30T12:36:43.879Z,21.53
2018-08-30T12:37:21.962Z,23.77
2018-08-30T12:38:00.187Z,21.90
2018-08-30T12:38:38.212Z,21.97
2018-08-30T12:39:16.533Z,22.07
2018-08-30T12:39:54.676Z,22.43
2018-08-30T12:40:32.877Z,21.70
2018-08-30T12:41:11.056Z,21.93
2018-08-30T12:41:49.110Z,21.93
2018-08-30T12:42:27.197Z,22.77
2018-08-30T12:43:05.380Z,22.37
2018-08-30T12:43:43.459Z,22.20
2018-08-30T12:44:21.540Z,22.83
2018-08-30T12:44:59.622Z,21.53
2018-08-30T12:45:37.669Z,22.50
2018-08-30T12:46:15.657Z,22.60
2018-08-30T12:46:53.641Z,22.60
2018-08-30T12:47:31.716Z,23.77
2018-08-30T12:48:09.944Z,22.50
2018-08-30T12:48:47.868Z,23.20
2018-08-30T12:49:26.220Z,22.70
2018-08-30T12:50:04.402Z,21.77
2018-08-30T12:50:42.533Z,22.13
2018-08-30T12:51:20.803Z,22.60
2018-08-30T12:51:58.820Z,23.60
2018-08-30T12:52:36.979Z,23.37
2018-08-30T12:53:15.175Z,23.00
2018-08-30T12:53:53.403Z,22.00
2018-08-30T12:54:31.534Z,22.60
2018-08-30T12:55:09.811Z,23.07
2018-08-30T12:55:47.984Z,23.07
2018-08-30T12:56:26.153Z,22.50
2018-08-30T12:57:04.356Z,22.90
2018-08-30T12:57:42.531Z,23.53
2018-08-30T12:58:20.809Z,23.53
2018-08-30T12:59:03.955Z,22.63
2018-08-30T12:59:44.102Z,22.67
2018-08-30T13:00:22.262Z,23.13
2018-08-30T13:01:00.331Z,22.70
2018-08-30T13:01:38.448Z,23.03
2018-08-30T13:02:16.649Z,23.87
2018-08-30T13:02:54.859Z,24.50
2018-08-30T13:03:32.974Z,23.90
2018-08-30T13:04:11.407Z,23.27
2018-08-30T13:04:49.822Z,23.93
2018-08-30T13:05:28.103Z,25.83
2018-08-30T13:06:07.285Z,24.23
2018-08-30T13:06:48.043Z,24.50
2018-08-30T13:07:27.694Z,23.37
2018-08-30T13:08:05.804Z,22.63
2018-08-30T13:08:44.053Z,23.50
2018-08-30T13:09:22.305Z,22.60
2018-08-30T13:10:00.554Z,24.17
2018-08-30T13:10:38.825Z,23.97
2018-08-30T13:11:17.190Z,25.77
2018-08-30T13:11:55.495Z,24.30
2018-08-30T13:12:33.743Z,24.53
2018-08-30T13:13:11.743Z,24.77
2018-08-30T13:13:49.946Z,24.67
2018-08-30T13:14:28.420Z,25.70
2018-08-30T13:15:06.650Z,24.70
2018-08-30T13:15:44.671Z,25.03
2018-08-30T13:16:22.815Z,23.80
2018-08-30T13:17:01.356Z,23.37
2018-08-30T13:17:39.626Z,23.50
2018-08-30T13:18:17.898Z,22.60
2018-08-30T13:18:56.065Z,23.70
2018-08-30T13:19:34.292Z,24.70
2018-08-30T13:20:13.108Z,23.03
2018-08-30T13:20:51.242Z,22.93
2018-08-30T13:21:29.239Z,25.93
2018-08-30T13:22:07.619Z,23.00
2018-08-30T13:22:45.600Z,22.77
2018-08-30T13:23:23.747Z,23.43
2018-08-30T13:24:02.318Z,24.33
2018-08-30T13:24:40.619Z,23.63
2018-08-30T13:25:18.703Z,24.47
2018-08-30T13:25:59.788Z,24.53
2018-08-30T13:26:37.938Z,23.93
2018-08-30T13:27:16.058Z,23.00
2018-08-30T13:27:54.235Z,25.07
2018-08-30T13:28:32.637Z,25.00
2018-08-30T13:29:10.660Z,22.77
2018-08-30T13:29:48.923Z,22.30
2018-08-30T13:30:27.279Z,25.10
2018-08-30T13:31:05.292Z,23.57
2018-08-30T13:31:44.035Z,23.67
2018-08-30T13:32:22.303Z,23.67
2018-08-30T13:33:00.746Z,23.03
2018-08-30T13:33:38.743Z,23.83
2018-08-30T13:34:17.629Z,23.37
2018-08-30T13:34:55.839Z,24.17
2018-08-30T13:35:33.930Z,24.50
2018-08-30T13:36:12.179Z,25.00
2018-08-30T13:36:50.449Z,23.40
2018-08-30T13:37:28.538Z,23.63
2018-08-30T13:38:06.963Z,24.40
2018-08-30T13:38:45.211Z,23.97
2018-08-30T13:39:23.225Z,23.53
2018-08-30T13:40:01.593Z,24.10
2018-08-30T13:40:39.810Z,24.37
2018-08-30T13:41:19.035Z,24.33
2018-08-30T13:41:57.614Z,25.37
2018-08-30T13:42:35.622Z,24.90
2018-08-30T13:43:13.784Z,24.37
2018-08-30T13:43:52.147Z,25.23
2018-08-30T13:44:30.086Z,24.03
2018-08-30T13:45:08.457Z,25.03
2018-08-30T13:45:46.433Z,25.43
2018-08-30T13:46:24.808Z,24.30
2018-08-30T13:47:03.061Z,24.50
2018-08-30T13:47:41.064Z,24.87
2018-08-30T13:48:19.245Z,24.07
2018-08-30T13:48:57.660Z,25.00
2018-08-30T13:49:35.417Z,24.07
2018-08-30T13:50:14.877Z,25.03
2018-08-30T13:50:52.938Z,25.87
2018-08-30T13:51:31.109Z,24.50
2018-08-30T13:52:09.375Z,24.53
2018-08-30T13:52:47.623Z,23.77
2018-08-30T13:53:25.738Z,24.37
2018-08-30T13:54:03.959Z,26.00
2018-08-30T13:54:42.240Z,24.27
2018-08-30T13:55:20.411Z,24.20
2018-08-30T13:55:58.451Z,26.80
2018-08-30T13:56:36.748Z,25.10
2018-08-30T13:57:15.159Z,25.17
2018-08-30T13:57:53.139Z,24.00
2018-08-30T13:58:31.543Z,24.07
2018-08-30T13:59:09.443Z,24.53
2018-08-30T13:59:47.671Z,24.93
2018-08-30T14:00:25.832Z,25.80
2018-08-30T14:01:04.148Z,25.30
2018-08-30T14:01:42.148Z,24.97
2018-08-30T14:02:20.624Z,23.77
2018-08-30T14:02:58.702Z,24.20
2018-08-30T14:03:37.093Z,24.77
2018-08-30T14:04:15.265Z,23.20
2018-08-30T14:04:53.713Z,23.23
2018-08-30T14:05:32.003Z,22.33
2018-08-30T14:06:10.287Z,25.40
2018-08-30T14:06:48.519Z,25.73
2018-08-30T14:07:26.628Z,24.67
2018-08-30T14:08:04.948Z,25.17
2018-08-30T14:08:43.220Z,24.27
2018-08-30T14:09:21.360Z,26.10
2018-08-30T14:09:59.468Z,25.07
2018-08-30T14:10:37.770Z,23.13
2018-08-30T14:11:15.854Z,22.83
2018-08-30T14:11:54.108Z,25.80
2018-08-30T14:12:31.992Z,23.47
2018-08-30T14:13:10.390Z,23.63
2018-08-30T14:13:48.537Z,23.97
2018-08-30T14:14:26.672Z,24.00
2018-08-30T14:15:05.009Z,23.77
2018-08-30T14:15:42.732Z,22.33
2018-08-30T14:16:20.737Z,23.37
2018-08-30T14:16:58.711Z,23.70
2018-08-30T14:17:36.680Z,25.40
2018-08-30T14:18:14.707Z,22.37
2018-08-30T14:18:53.295Z,23.17
2018-08-30T14:19:31.261Z,24.83
2018-08-30T14:20:09.568Z,22.97
2018-08-30T14:20:47.807Z,24.30
2018-08-30T14:21:25.834Z,25.07
2018-08-30T14:22:04.346Z,24.00
2018-08-30T14:22:42.404Z,24.70
2018-08-30T14:23:20.538Z,24.40
2018-08-30T14:23:58.532Z,23.70
2018-08-30T14:24:36.413Z,24.30
2018-08-30T14:25:15.358Z,22.40
2018-08-30T14:25:53.328Z,24.53
2018-08-30T14:26:31.347Z,23.73
2018-08-30T14:27:09.329Z,24.30
2018-08-30T14:27:47.527Z,24.90
2018-08-30T14:28:25.559Z,22.40
2018-08-30T14:29:03.667Z,24.17
2018-08-30T14:29:42.071Z,24.60
2018-08-30T14:30:20.088Z,24.90
2018-08-30T14:30:58.195Z,23.57
2018-08-30T14:31:36.228Z,24.03
2018-08-30T14:32:15.010Z,23.47
2018-08-30T14:32:53.181Z,23.10
2018-08-30T14:33:31.196Z,22.23
2018-08-30T14:34:09.247Z,24.10
2018-08-30T14:34:47.281Z,25.17
2018-08-30T14:35:25.207Z,25.37
2018-08-30T14:36:03.219Z,25.00
2018-08-30T14:36:41.302Z,24.10
2018-08-30T14:37:19.322Z,24.77
2018-08-30T14:37:57.206Z,24.00
2018-08-30T14:38:35.093Z,24.43
2018-08-30T14:39:14.495Z,24.57
2018-08-30T14:39:52.501Z,24.80
2018-08-30T14:40:30.676Z,25.17
2018-08-30T14:41:09.432Z,25.63
2018-08-30T14:41:48.232Z,25.30
2018-08-30T14:42:26.665Z,24.07
2018-08-30T14:43:05.459Z,24.07
2018-08-30T14:43:43.649Z,25.37
2018-08-30T14:44:21.769Z,24.60
2018-08-30T14:44:59.877Z,25.80
2018-08-30T14:45:37.838Z,26.70
2018-08-30T14:46:16.236Z,25.57
2018-08-30T14:46:55.534Z,23.77
2018-08-30T14:47:33.776Z,26.10
2018-08-30T14:48:11.860Z,26.23
2018-08-30T14:48:49.712Z,26.27
2018-08-30T14:49:28.060Z,24.97
2018-08-30T14:50:06.226Z,26.57
2018-08-30T14:50:44.191Z,27.17
2018-08-30T14:51:22.344Z,26.33
2018-08-30T14:52:01.331Z,25.30
2018-08-30T14:52:39.324Z,25.37
2018-08-30T14:53:17.511Z,25.97
2018-08-30T14:53:55.920Z,26.10
2018-08-30T14:54:34.056Z,27.40
2018-08-30T14:55:12.114Z,27.20
2018-08-30T14:55:50.256Z,26.27
2018-08-30T14:56:29.405Z,27.40
2018-08-30T14:57:07.393Z,28.60
2018-08-30T14:57:45.428Z,26.77
2018-08-30T14:58:23.436Z,27.10
2018-08-30T14:59:01.478Z,26.63
2018-08-30T14:59:39.472Z,26.63
2018-08-30T15:00:17.911Z,26.83
2018-08-30T15:00:56.029Z,25.70
2018-08-30T15:01:33.987Z,28.13
2018-08-30T15:02:11.976Z,26.90
2018-08-30T15:02:49.977Z,26.30
2018-08-30T15:03:27.885Z,27.37
2018-08-30T15:04:05.924Z,28.50
2018-08-30T15:04:43.828Z,28.20
2018-08-30T15:05:21.956Z,28.97
2018-08-30T15:06:00.131Z,28.00
2018-08-30T15:06:38.258Z,27.57
2018-08-30T15:07:16.189Z,29.40
2018-08-30T15:07:54.228Z,28.57
2018-08-30T15:08:32.263Z,29.07
2018-08-30T15:09:11.714Z,29.43
2018-08-30T15:09:49.687Z,27.27
2018-08-30T15:10:27.813Z,29.20
2018-08-30T15:11:05.905Z,27.93
2018-08-30T15:11:44.100Z,27.43
2018-08-30T15:12:22.122Z,29.03
2018-08-30T15:13:00.498Z,28.20
2018-08-30T15:13:38.567Z,29.13
2018-08-30T15:14:17.130Z,29.20
2018-08-30T15:14:55.234Z,27.90
2018-08-30T15:15:33.613Z,29.07
2018-08-30T15:16:11.935Z,28.17
2018-08-30T15:16:49.984Z,28.47
2018-08-30T15:17:28.140Z,28.13
2018-08-30T15:18:06.156Z,28.37
2018-08-30T15:18:44.390Z,26.47
2018-08-30T15:19:22.544Z,28.50
2018-08-30T15:20:01.056Z,28.70
2018-08-30T15:20:39.109Z,29.17
2018-08-30T15:21:16.979Z,28.73
2018-08-30T15:21:55.122Z,28.80
2018-08-30T15:22:33.234Z,29.33
2018-08-30T15:23:11.872Z,28.07
2018-08-30T15:23:50.288Z,28.90
2018-08-30T15:24:28.205Z,28.43
2018-08-30T15:25:06.287Z,30.40
2018-08-30T15:25:44.471Z,29.83
2018-08-30T15:26:22.332Z,29.20
2018-08-30T15:27:00.535Z,29.53
2018-08-30T15:27:38.367Z,29.43
2018-08-30T15:28:16.705Z,28.85
2018-08-30T15:29:00.315Z,28.47
2018-08-30T15:29:38.345Z,28.93
2018-08-30T15:30:17.124Z,28.90
2018-08-30T15:30:55.121Z,30.47
2018-08-30T15:31:33.094Z,30.57
2018-08-30T15:32:11.142Z,29.00
2018-08-30T15:32:49.147Z,30.00
2018-08-30T15:33:27.234Z,30.27
2018-08-30T15:34:05.166Z,29.57
2018-08-30T15:34:43.473Z,29.20
2018-08-30T15:35:21.496Z,30.37
2018-08-30T15:35:59.457Z,29.33
2018-08-30T15:36:37.497Z,29.43
2018-08-30T15:37:15.631Z,29.03
2018-08-30T15:37:53.831Z,29.80
2018-08-30T15:38:31.778Z,28.77
2018-08-30T15:39:12.567Z,29.90
2018-08-30T15:39:50.460Z,31.00
2018-08-30T15:40:28.792Z,29.60
2018-08-30T15:41:06.893Z,29.77
2018-08-30T15:41:44.947Z,29.20
2018-08-30T15:42:23.343Z,30.30
2018-08-30T15:43:01.392Z,30.90
2018-08-30T15:43:39.472Z,30.47
2018-08-30T15:44:17.549Z,31.40
2018-08-30T15:44:55.456Z,31.93
2018-08-30T15:45:33.326Z,30.40
2018-08-30T15:46:11.608Z,31.70
2018-08-30T15:46:49.806Z,31.93
2018-08-30T15:47:28.026Z,30.73
2018-08-30T15:48:06.243Z,31.30
2018-08-30T15:48:44.750Z,32.70
2018-08-30T15:49:23.183Z,33.80
2018-08-30T15:50:01.980Z,31.97
2018-08-30T15:50:39.944Z,31.40
2018-08-30T15:51:17.875Z,31.50
2018-08-30T15:51:56.122Z,30.10
2018-08-30T15:52:34.066Z,32.97
2018-08-30T15:53:12.221Z,31.77
2018-08-30T15:53:50.479Z,31.93
2018-08-30T15:54:28.691Z,30.80
2018-08-30T15:55:06.876Z,32.20
2018-08-30T15:55:44.763Z,32.33
2018-08-30T15:56:22.791Z,30.03
2018-08-30T15:57:00.868Z,31.80
2018-08-30T15:57:39.123Z,30.70
2018-08-30T15:58:17.055Z,30.37
2018-08-30T15:58:55.064Z,31.07
2018-08-30T15:59:33.322Z,30.47
2018-08-30T16:00:12.374Z,30.57
2018-08-30T16:00:50.365Z,31.83
2018-08-30T16:01:28.306Z,33.30
2018-08-30T16:02:06.302Z,30.00
2018-08-30T16:02:44.319Z,32.20
2018-08-30T16:03:22.593Z,31.47
2018-08-30T16:04:00.542Z,32.50
2018-08-30T16:04:38.714Z,31.83
2018-08-30T16:05:16.758Z,30.50
2018-08-30T16:05:54.822Z,32.30
2018-08-30T16:06:32.914Z,32.00
2018-08-30T16:07:10.844Z,32.60
2018-08-30T16:07:48.818Z,32.20
2018-08-30T16:08:26.980Z,32.67
2018-08-30T16:09:05.003Z,32.77
2018-08-30T16:09:42.977Z,33.03
2018-08-30T16:10:21.265Z,31.77
2018-08-30T16:10:59.246Z,32.13
2018-08-30T16:11:37.208Z,31.50
2018-08-30T16:12:15.244Z,32.27
2018-08-30T16:12:53.238Z,32.57
2018-08-30T16:13:31.221Z,33.13
2018-08-30T16:14:09.204Z,32.90
2018-08-30T16:14:47.236Z,32.40
2018-08-30T16:15:25.234Z,31.20
2018-08-30T16:16:03.704Z,30.20
2018-08-30T16:16:41.916Z,31.40
2018-08-30T16:17:20.083Z,32.70
2018-08-30T16:17:58.053Z,31.30
2018-08-30T16:18:36.853Z,32.13
2018-08-30T16:19:14.923Z,33.40
2018-08-30T16:19:53.066Z,31.83
2018-08-30T16:20:31.086Z,31.67
2018-08-30T16:21:09.140Z,31.63
2018-08-30T16:21:47.103Z,30.70
2018-08-30T16:22:29.253Z,33.60
2018-08-30T16:23:12.448Z,30.60
2018-08-30T16:23:51.429Z,32.33
2018-08-30T16:24:29.391Z,31.93
2018-08-30T16:25:07.641Z,31.57
2018-08-30T16:25:45.643Z,34.03
2018-08-30T16:26:23.539Z,31.43
2018-08-30T16:27:01.687Z,32.10
2018-08-30T16:27:39.798Z,32.80
2018-08-30T16:28:17.816Z,32.73
2018-08-30T16:28:55.724Z,31.93
2018-08-30T16:29:33.929Z,31.43
2018-08-30T16:30:11.909Z,32.33
2018-08-30T16:30:50.021Z,33.80
2018-08-30T16:31:28.094Z,33.23
2018-08-30T16:32:06.139Z,32.93
2018-08-30T16:32:44.132Z,34.20
2018-08-30T16:33:22.019Z,33.80
2018-08-30T16:34:00.205Z,32.13
2018-08-30T16:34:38.201Z,33.10
2018-08-30T16:35:16.285Z,32.30
2018-08-30T16:35:54.399Z,31.17
2018-08-30T16:36:32.577Z,34.57
2018-08-30T16:37:10.883Z,31.27
2018-08-30T16:37:49.054Z,33.17
2018-08-30T16:38:27.110Z,33.80
2018-08-30T16:39:05.364Z,33.47
2018-08-30T16:39:43.721Z,33.10
2018-08-30T16:40:21.615Z,35.13
2018-08-30T16:40:59.591Z,32.93
2018-08-30T16:41:37.906Z,33.20
2018-08-30T16:42:16.658Z,32.45
2018-08-30T16:42:54.901Z,33.00
2018-08-30T16:43:32.911Z,32.90
2018-08-30T16:44:11.140Z,34.20
2018-08-30T16:44:49.021Z,33.37
2018-08-30T16:45:26.971Z,32.53
2018-08-30T16:46:04.981Z,32.57
2018-08-30T16:46:42.888Z,33.90
2018-08-30T16:47:21.039Z,31.67
2018-08-30T16:47:59.238Z,34.07
2018-08-30T16:48:37.257Z,32.23
2018-08-30T16:49:15.386Z,31.60
2018-08-30T16:49:53.480Z,33.20
2018-08-30T16:50:32.242Z,33.70
2018-08-30T16:51:10.184Z,32.93
2018-08-30T16:51:48.131Z,33.93
2018-08-30T16:52:26.498Z,32.63
2018-08-30T16:53:04.851Z,32.30
2018-08-30T16:53:42.885Z,32.10
2018-08-30T16:54:20.799Z,33.03
2018-08-30T16:54:58.754Z,31.20
2018-08-30T16:55:37.313Z,33.03
2018-08-30T16:56:15.558Z,32.40
2018-08-30T16:56:53.694Z,32.17
2018-08-30T16:57:31.723Z,34.23
2018-08-30T16:58:10.190Z,32.73
2018-08-30T16:58:48.158Z,32.10
2018-08-30T16:59:26.159Z,32.30
2018-08-30T17:00:04.191Z,33.67
2018-08-30T17:00:42.127Z,32.77
2018-08-30T17:01:20.324Z,32.83
2018-08-30T17:01:58.352Z,33.17
2018-08-30T17:02:36.274Z,34.27
2018-08-30T17:03:14.481Z,34.33
2018-08-30T17:03:52.446Z,33.03
2018-08-30T17:04:30.400Z,33.93
2018-08-30T17:05:08.495Z,32.40
2018-08-30T17:05:46.522Z,33.87
2018-08-30T17:06:24.542Z,34.63
2018-08-30T17:07:02.813Z,32.70
2018-08-30T17:07:41.030Z,31.97
2018-08-30T17:08:18.970Z,34.37
2018-08-30T17:08:56.882Z,32.77
2018-08-30T17:09:34.794Z,32.37
2018-08-30T17:10:12.931Z,31.20
2018-08-30T17:10:51.012Z,32.87
2018-08-30T17:11:29.274Z,32.33
2018-08-30T17:12:07.532Z,32.60
2018-08-30T17:12:45.593Z,33.23
2018-08-30T17:13:23.928Z,33.33
2018-08-30T17:14:01.888Z,31.77
2018-08-30T17:14:39.845Z,32.13
2018-08-30T17:15:17.921Z,31.73
2018-08-30T17:15:55.831Z,31.73
2018-08-30T17:16:33.991Z,33.97
2018-08-30T17:17:12.039Z,33.57
2018-08-30T17:17:50.236Z,33.47
2018-08-30T17:18:28.253Z,33.50
2018-08-30T17:19:14.131Z,32.67
2018-08-30T17:19:52.491Z,32.80
2018-08-30T17:20:36.914Z,33.43
2018-08-30T17:21:15.127Z,32.60
2018-08-30T17:21:53.287Z,32.87
2018-08-30T17:22:31.231Z,33.00
2018-08-30T17:23:09.248Z,32.07
2018-08-30T17:23:47.275Z,31.53
2018-08-30T17:24:25.374Z,34.70
2018-08-30T17:25:03.423Z,33.23
2018-08-30T17:25:41.738Z,32.70
2018-08-30T17:26:19.995Z,32.97
2018-08-30T17:26:58.069Z,33.67
2018-08-30T17:27:36.182Z,32.17
2018-08-30T17:28:14.472Z,32.83
2018-08-30T17:28:52.463Z,31.93
2018-08-30T17:29:30.498Z,33.60
2018-08-30T17:30:09.056Z,32.10
2018-08-30T17:30:47.192Z,32.90
2018-08-30T17:31:25.462Z,32.60
2018-08-30T17:32:03.607Z,31.87
2018-08-30T17:32:41.712Z,33.17
2018-08-30T17:33:19.720Z,35.73
2018-08-30T17:33:57.805Z,33.33
2018-08-30T17:34:35.891Z,34.20
2018-08-30T17:35:13.779Z,34.07
2018-08-30T17:35:51.649Z,33.47
2018-08-30T17:36:29.737Z,32.00
2018-08-30T17:37:07.920Z,31.70
2018-08-30T17:37:46.060Z,33.20
2018-08-30T17:38:24.046Z,32.97
2018-08-30T17:39:02.022Z,32.23
2018-08-30T17:39:39.993Z,32.90
2018-08-30T17:40:18.058Z,31.90
2018-08-30T17:40:55.971Z,35.27
2018-08-30T17:41:34.287Z,34.50
2018-08-30T17:42:12.542Z,30.50
2018-08-30T17:42:51.080Z,34.40
2018-08-30T17:43:29.032Z,33.10
2018-08-30T17:44:07.842Z,32.47
2018-08-30T17:44:45.844Z,33.30
2018-08-30T17:45:24.042Z,31.83
2018-08-30T17:46:02.034Z,33.50
2018-08-30T17:46:40.206Z,33.60
2018-08-30T17:47:18.150Z,33.93
2018-08-30T17:47:56.042Z,32.40
2018-08-30T17:48:34.913Z,33.60
2018-08-30T17:49:12.880Z,33.40
2018-08-30T17:49:50.887Z,31.43
2018-08-30T17:50:28.892Z,32.70
2018-08-30T17:51:08.125Z,30.70
2018-08-30T17:51:46.288Z,31.17
2018-08-30T17:52:24.168Z,31.70
2018-08-30T17:53:02.236Z,30.37
2018-08-30T17:53:40.326Z,29.60
2018-08-30T17:54:20.231Z,32.53
2018-08-30T17:54:58.702Z,32.00
2018-08-30T17:55:36.684Z,31.00
2018-08-30T17:56:14.654Z,31.93
2018-08-30T17:56:52.618Z,31.07
2018-08-30T17:57:31.002Z,32.27
2018-08-30T17:58:09.291Z,31.53
2018-08-30T17:58:47.404Z,31.37
2018-08-30T17:59:25.400Z,31.67
2018-08-30T18:00:03.429Z,31.07
2018-08-30T18:00:41.421Z,32.80
2018-08-30T18:01:19.548Z,32.33
2018-08-30T18:01:57.809Z,31.60
2018-08-30T18:02:35.697Z,33.30
2018-08-30T18:03:13.696Z,30.33
2018-08-30T18:03:52.337Z,31.23
2018-08-30T18:04:30.309Z,32.50
2018-08-30T18:05:09.146Z,31.53
2018-08-30T18:05:48.020Z,31.47
2018-08-30T18:06:25.916Z,31.43
2018-08-30T18:07:04.764Z,32.00
2018-08-30T18:07:42.797Z,29.60
2018-08-30T18:08:20.698Z,30.90
2018-08-30T18:08:58.739Z,29.03
2018-08-30T18:09:36.732Z,30.50
2018-08-30T18:10:14.944Z,28.67
2018-08-30T18:10:53.044Z,31.20
2018-08-30T18:11:31.355Z,31.60
2018-08-30T18:12:51.374Z,31.57
2018-08-30T18:13:29.372Z,29.60
2018-08-30T18:14:07.396Z,31.30
2018-08-30T18:14:45.471Z,29.10
2018-08-30T18:15:23.441Z,28.53
2018-08-30T18:16:01.370Z,28.97
2018-08-30T18:16:39.333Z,30.50
2018-08-30T18:17:17.430Z,29.17
2018-08-30T18:17:55.379Z,30.50
2018-08-30T18:18:34.569Z,28.93
2018-08-30T18:19:12.709Z,26.90
2018-08-30T18:19:50.835Z,28.00
2018-08-30T18:20:28.759Z,28.10
2018-08-30T18:21:07.596Z,29.00
2018-08-30T18:21:45.585Z,30.10
2018-08-30T18:22:23.681Z,29.00
2018-08-30T18:23:01.555Z,28.63
2018-08-30T18:23:39.536Z,29.20
2018-08-30T18:24:17.659Z,29.27
2018-08-30T18:24:56.033Z,31.60
2018-08-30T18:25:47.533Z,30.20
2018-08-30T18:26:25.475Z,28.10
2018-08-30T18:27:03.505Z,29.97
2018-08-30T18:27:42.044Z,29.70
2018-08-30T18:28:20.925Z,30.20
2018-08-30T18:28:58.999Z,27.43
2018-08-30T18:29:37.289Z,30.90
2018-08-30T18:30:15.712Z,29.77
2018-08-30T18:30:53.660Z,27.70
2018-08-30T18:31:31.592Z,28.23
2018-08-30T18:32:10.498Z,29.13
2018-08-30T18:32:48.364Z,28.47
2018-08-30T18:33:26.371Z,28.60
2018-08-30T18:34:05.137Z,30.77
2018-08-30T18:34:44.786Z,29.53
2018-08-30T18:35:23.100Z,28.27
2018-08-30T18:36:01.089Z,27.43
2018-08-30T18:36:39.210Z,28.80
2018-08-30T18:37:17.693Z,29.40
2018-08-30T18:37:55.687Z,26.10
2018-08-30T18:38:33.732Z,29.17
2018-08-30T18:39:13.460Z,30.00
2018-08-30T18:39:51.539Z,27.73
2018-08-30T18:40:29.489Z,27.20
2018-08-30T18:41:07.719Z,27.47
2018-08-30T18:41:45.584Z,27.83
2018-08-30T18:42:23.573Z,27.00
2018-08-30T18:43:01.616Z,27.83
2018-08-30T18:43:39.780Z,28.13
2018-08-30T18:44:17.744Z,28.40
2018-08-30T18:44:55.731Z,27.83
2018-08-30T18:45:33.755Z,26.03
2018-08-30T18:46:11.881Z,26.93
2018-08-30T18:46:49.901Z,27.80
2018-08-30T18:47:27.806Z,27.97
2018-08-30T18:48:05.836Z,27.10
2018-08-30T18:48:43.775Z,25.80
2018-08-30T18:49:21.824Z,27.27
2018-08-30T18:49:59.929Z,27.33
2018-08-30T18:50:37.944Z,26.90
2018-08-30T18:51:15.868Z,24.90
2018-08-30T18:51:53.751Z,25.60
2018-08-30T18:52:31.648Z,26.37
2018-08-30T18:53:09.796Z,26.23
2018-08-30T18:53:47.777Z,26.17
2018-08-30T18:54:25.927Z,24.70
2018-08-30T18:55:03.884Z,26.80
2018-08-30T18:55:41.897Z,26.53
2018-08-30T18:56:19.887Z,25.83
2018-08-30T18:56:57.991Z,25.77
2018-08-30T18:57:36.040Z,25.10
2018-08-30T18:58:14.264Z,25.10
2018-08-30T18:58:52.316Z,25.57
2018-08-30T18:59:30.777Z,27.40
2018-08-30T19:00:09.064Z,25.90
2018-08-30T19:00:47.310Z,26.50
2018-08-30T19:01:25.450Z,26.17
2018-08-30T19:02:03.529Z,26.27
2018-08-30T19:02:41.838Z,25.83
2018-08-30T19:03:19.861Z,26.40
2018-08-30T19:03:57.882Z,25.50
2018-08-30T19:04:35.731Z,28.03
2018-08-30T19:05:13.732Z,27.57
2018-08-30T19:05:56.200Z,25.87
2018-08-30T19:06:34.285Z,25.63
2018-08-30T19:07:12.300Z,25.57
2018-08-30T19:07:50.272Z,26.87
2018-08-30T19:08:28.213Z,24.97
2018-08-30T19:09:06.827Z,26.50
2018-08-30T19:09:44.938Z,25.63
2018-08-30T19:10:22.879Z,25.93
2018-08-30T19:11:00.886Z,28.53
2018-08-30T19:11:38.931Z,27.10
2018-08-30T19:12:16.856Z,24.33
2018-08-30T19:12:54.879Z,25.77
2018-08-30T19:13:37.053Z,27.07
2018-08-30T19:14:15.080Z,26.47
2018-08-30T19:14:53.227Z,25.47
2018-08-30T19:15:35.182Z,25.50
2018-08-30T19:16:17.286Z,26.20
2018-08-30T19:16:59.328Z,25.97
2018-08-30T19:17:41.371Z,25.80
2018-08-30T19:18:23.393Z,25.07
2018-08-30T19:19:05.334Z,26.40
2018-08-30T19:19:43.617Z,25.20
2018-08-30T19:20:21.620Z,26.30
2018-08-30T19:21:00.025Z,27.20
2018-08-30T19:21:38.205Z,27.60
2018-08-30T19:22:17.061Z,26.90
2018-08-30T19:22:55.004Z,27.40
2018-08-30T19:23:32.903Z,28.97
2018-08-30T19:24:14.414Z,29.03
2018-08-30T19:24:56.630Z,26.93
2018-08-30T19:25:35.684Z,27.23
2018-08-30T19:26:13.616Z,27.00
2018-08-30T19:26:53.032Z,27.20
2018-08-30T19:27:30.984Z,26.90
2018-08-30T19:28:08.898Z,27.60
2018-08-30T19:28:47.280Z,26.80
2018-08-30T19:29:25.341Z,26.53
2018-08-30T19:30:07.385Z,27.60
2018-08-30T19:30:46.455Z,28.93
2018-08-30T19:31:24.501Z,27.50
2018-08-30T19:32:02.455Z,27.23
2018-08-30T19:32:40.785Z,27.60
2018-08-30T19:33:19.022Z,27.20
2018-08-30T19:33:57.019Z,28.17
2018-08-30T19:34:34.894Z,27.30
2018-08-30T19:35:16.965Z,26.83